createdAt,value
2022-10-01T00:01:33.611Z,80.44
2022-10-01T00:06:54.130Z,80.60
2022-10-01T00:09:22.499Z,80.66
2022-10-01T00:11:55.342Z,80.76
2022-10-01T00:14:23.229Z,80.86
2022-10-01T00:16:52.614Z,80.84
2022-10-01T00:19:23.013Z,80.93
2022-10-01T00:22:00.768Z,80.96
2022-10-01T00:24:34.940Z,81.02
2022-10-01T00:27:06.115Z,81.07
2022-10-01T00:29:37.759Z,81.11
2022-10-01T00:32:07.338Z,81.31
2022-10-01T00:34:35.261Z,81.46
2022-10-01T00:37:05.189Z,81.40
2022-10-01T00:39:35.678Z,81.37
2022-10-01T00:42:17.717Z,81.32
2022-10-01T00:44:46.949Z,81.53
2022-10-01T00:47:23.692Z,81.54
2022-10-01T00:49:59.518Z,81.67
2022-10-01T00:52:34.086Z,81.90
2022-10-01T00:55:22.658Z,81.84
2022-10-01T00:57:55.431Z,82.23
2022-10-01T01:00:33.003Z,82.11
2022-10-01T01:03:02.274Z,82.11
2022-10-01T01:05:34.362Z,82.15
2022-10-01T01:08:03.940Z,82.08
2022-10-01T01:11:05.552Z,82.11
2022-10-01T01:14:00.020Z,82.55
2022-10-01T01:16:39.552Z,82.47
2022-10-01T01:19:24.840Z,82.58
2022-10-01T01:22:04.628Z,82.55
2022-10-01T01:25:04.872Z,82.71
2022-10-01T01:27:44.940Z,82.58
2022-10-01T01:30:19.071Z,82.56
2022-10-01T01:33:04.760Z,82.63
2022-10-01T01:35:42.145Z,82.74
2022-10-01T01:38:14.959Z,82.57
2022-10-01T01:40:46.181Z,82.74
2022-10-01T01:43:24.470Z,82.97
2022-10-01T01:46:04.146Z,83.02
2022-10-01T01:48:37.372Z,83.27
2022-10-01T01:51:24.311Z,83.33
2022-10-01T01:53:56.084Z,83.47
2022-10-01T01:56:28.082Z,83.42
2022-10-01T01:59:00.233Z,83.30
2022-10-01T02:01:40.717Z,83.43
2022-10-01T02:04:16.962Z,83.51
2022-10-01T02:07:23.993Z,83.50
2022-10-01T02:10:21.868Z,83.48
2022-10-01T02:13:08.796Z,83.46
2022-10-01T02:15:59.891Z,83.63
2022-10-01T02:18:38.047Z,83.67
2022-10-01T02:21:19.901Z,83.80
2022-10-01T02:23:59.401Z,83.93
2022-10-01T02:26:32.146Z,83.89
2022-10-01T02:29:08.169Z,83.89
2022-10-01T02:31:36.515Z,84.07
2022-10-01T02:34:12.448Z,84.09
2022-10-01T02:36:45.745Z,84.20
2022-10-01T02:39:16.083Z,83.96
2022-10-01T02:41:49.110Z,84.16
2022-10-01T02:44:42.706Z,84.25
2022-10-01T02:47:26.387Z,84.41
2022-10-01T02:49:54.667Z,84.42
2022-10-01T02:52:40.888Z,84.40
2022-10-01T02:55:18.797Z,85.01
2022-10-01T02:57:47.164Z,84.63
2022-10-01T03:00:22.690Z,84.88
2022-10-01T03:02:50.944Z,84.93
2022-10-01T03:05:28.015Z,84.96
2022-10-01T03:07:57.107Z,85.18
2022-10-01T03:10:24.896Z,85.01
2022-10-01T03:12:52.681Z,85.03
2022-10-01T03:15:20.795Z,84.91
2022-10-01T03:17:54.765Z,85.18
2022-10-01T03:20:24.714Z,85.10
2022-10-01T03:22:53.811Z,85.07
2022-10-01T03:25:23.112Z,85.15
2022-10-01T03:27:54.982Z,85.20
2022-10-01T03:30:22.824Z,85.18
2022-10-01T03:32:50.594Z,85.14
2022-10-01T03:35:18.661Z,85.32
2022-10-01T03:37:47.782Z,85.41
2022-10-01T03:40:16.260Z,85.48
2022-10-01T03:42:44.021Z,85.51
2022-10-01T03:45:12.877Z,85.59
2022-10-01T03:47:41.419Z,85.59
2022-10-01T03:50:12.211Z,85.42
2022-10-01T03:52:40.015Z,85.54
2022-10-01T03:55:09.140Z,85.68
2022-10-01T03:57:36.931Z,85.61
2022-10-01T04:00:05.501Z,85.74
2022-10-01T04:02:41.162Z,85.89
2022-10-01T04:05:09.306Z,85.91
2022-10-01T04:07:37.394Z,85.92
2022-10-01T04:10:08.485Z,86.04
2022-10-01T04:12:36.753Z,85.93
2022-10-01T04:15:04.874Z,86.10
2022-10-01T04:17:33.286Z,86.07
2022-10-01T04:20:01.332Z,86.15
2022-10-01T04:22:29.206Z,86.10
2022-10-01T04:24:56.990Z,86.29
2022-10-01T04:27:26.078Z,86.44
2022-10-01T04:29:54.403Z,86.42
2022-10-01T04:32:22.727Z,86.34
2022-10-01T04:34:53.543Z,86.36
2022-10-01T04:37:22.595Z,86.44
2022-10-01T04:39:50.483Z,86.49
2022-10-01T04:42:20.797Z,86.47
2022-10-01T04:44:49.870Z,86.54
2022-10-01T04:47:17.769Z,86.55
2022-10-01T04:49:45.653Z,86.40
2022-10-01T04:52:15.503Z,86.57
2022-10-01T04:54:43.274Z,86.66
2022-10-01T04:57:12.276Z,86.55
2022-10-01T04:59:41.248Z,86.70
2022-10-01T05:02:12.848Z,86.65
2022-10-01T05:04:43.407Z,86.65
2022-10-01T05:07:11.951Z,86.71
2022-10-01T05:09:40.070Z,86.54
2022-10-01T05:12:10.830Z,86.67
2022-10-01T05:14:39.806Z,86.65
2022-10-01T05:17:09.314Z,86.57
2022-10-01T05:19:37.708Z,86.52
2022-10-01T05:22:05.840Z,86.70
2022-10-01T05:24:43.878Z,86.64
2022-10-01T05:27:19.980Z,86.78
2022-10-01T05:29:48.500Z,87.02
2022-10-01T05:32:16.486Z,86.95
2022-10-01T05:34:44.734Z,87.00
2022-10-01T05:37:12.600Z,86.91
2022-10-01T05:39:41.821Z,86.98
2022-10-01T05:42:11.106Z,87.30
2022-10-01T05:44:47.044Z,87.32
2022-10-01T05:47:20.112Z,87.38
2022-10-01T05:49:51.278Z,87.47
2022-10-01T05:52:19.158Z,87.46
2022-10-01T05:54:47.003Z,87.46
2022-10-01T05:57:14.845Z,87.56
2022-10-01T05:59:43.660Z,87.61
2022-10-01T06:02:12.867Z,87.68
2022-10-01T06:04:41.403Z,87.72
2022-10-01T06:07:16.303Z,87.80
2022-10-01T06:09:45.432Z,88.03
2022-10-01T06:12:19.796Z,87.97
2022-10-01T06:14:52.108Z,87.84
2022-10-01T06:17:19.955Z,87.65
2022-10-01T06:19:47.787Z,87.88
2022-10-01T06:22:16.331Z,87.88
2022-10-01T06:24:46.060Z,88.04
2022-10-01T06:27:15.700Z,88.04
2022-10-01T06:29:43.573Z,88.09
2022-10-01T06:32:14.140Z,88.03
2022-10-01T06:34:42.001Z,87.86
2022-10-01T06:37:10.854Z,87.94
2022-10-01T06:39:39.219Z,87.88
2022-10-01T06:42:07.013Z,88.04
2022-10-01T06:44:34.814Z,87.94
2022-10-01T06:47:06.193Z,87.87
2022-10-01T06:49:38.392Z,88.04
2022-10-01T06:52:24.880Z,88.01
2022-10-01T06:54:52.668Z,87.51
2022-10-01T06:57:20.860Z,87.71
2022-10-01T06:59:55.532Z,87.81
2022-10-01T07:02:28.103Z,87.81
2022-10-01T07:04:59.814Z,87.84
2022-10-01T07:07:34.863Z,87.90
2022-10-01T07:10:07.176Z,88.24
2022-10-01T07:12:37.731Z,88.12
2022-10-01T07:15:09.569Z,88.04
2022-10-01T07:17:50.903Z,88.31
2022-10-01T07:20:21.138Z,88.28
2022-10-01T07:22:57.283Z,88.39
2022-10-01T07:25:27.956Z,88.02
2022-10-01T07:28:01.166Z,87.96
2022-10-01T07:30:29.655Z,88.14
2022-10-01T07:33:00.703Z,87.91
2022-10-01T07:35:29.746Z,87.88
2022-10-01T07:37:57.662Z,88.07
2022-10-01T07:40:27.090Z,87.89
2022-10-01T07:42:56.256Z,87.78
2022-10-01T07:45:25.350Z,88.01
2022-10-01T07:47:58.109Z,87.84
2022-10-01T07:50:26.999Z,88.03
2022-10-01T07:52:56.162Z,87.97
2022-10-01T07:55:30.621Z,87.77
2022-10-01T07:58:03.457Z,87.57
2022-10-01T08:00:33.622Z,87.67
2022-10-01T08:03:01.955Z,87.45
2022-10-01T08:05:32.354Z,87.64
2022-10-01T08:08:02.548Z,87.59
2022-10-01T08:10:31.039Z,87.40
2022-10-01T08:13:08.142Z,87.43
2022-10-01T08:15:35.925Z,87.29
2022-10-01T08:18:04.785Z,87.40
2022-10-01T08:20:32.471Z,87.32
2022-10-01T08:23:04.428Z,87.30
2022-10-01T08:25:32.925Z,87.31
2022-10-01T08:28:01.457Z,87.38
2022-10-01T08:30:30.758Z,87.44
2022-10-01T08:33:01.678Z,87.39
2022-10-01T08:35:30.223Z,87.28
2022-10-01T08:38:05.753Z,86.73
2022-10-01T08:40:38.594Z,86.96
2022-10-01T08:43:07.750Z,86.97
2022-10-01T08:45:41.825Z,86.53
2022-10-01T08:48:41.586Z,86.40
2022-10-01T08:51:27.806Z,86.02
2022-10-01T08:54:14.095Z,85.96
2022-10-01T08:56:46.348Z,86.00
2022-10-01T08:59:27.433Z,85.97
2022-10-01T09:01:56.920Z,85.97
2022-10-01T09:04:26.743Z,86.05
2022-10-01T09:07:10.409Z,85.82
2022-10-01T09:09:49.973Z,85.34
2022-10-01T09:12:36.146Z,85.22
2022-10-01T09:15:15.610Z,85.15
2022-10-01T09:18:21.985Z,84.78
2022-10-01T09:20:57.811Z,84.18
2022-10-01T09:23:39.914Z,84.36
2022-10-01T09:26:12.305Z,83.91
2022-10-01T09:28:41.718Z,83.50
2022-10-01T09:31:29.054Z,83.55
2022-10-01T09:34:10.908Z,83.36
2022-10-01T09:36:57.200Z,83.34
2022-10-01T09:39:56.922Z,82.62
2022-10-01T09:42:27.640Z,82.42
2022-10-01T09:44:57.305Z,82.59
2022-10-01T09:47:25.734Z,81.93
2022-10-01T09:49:53.935Z,81.59
2022-10-01T09:52:39.115Z,81.16
2022-10-01T09:55:31.612Z,80.97
2022-10-01T09:58:03.092Z,81.08
2022-10-01T10:00:31.892Z,81.02
2022-10-01T10:03:00.879Z,79.97
2022-10-01T10:05:41.742Z,80.06
2022-10-01T10:08:14.537Z,80.11
2022-10-01T10:10:57.330Z,79.72
2022-10-01T10:13:48.139Z,79.48
2022-10-01T10:16:24.829Z,78.67
2022-10-01T10:18:56.684Z,78.63
2022-10-01T10:21:28.629Z,78.21
2022-10-01T10:24:00.145Z,78.16
2022-10-01T10:26:32.259Z,78.36
2022-10-01T10:29:02.780Z,78.39
2022-10-01T10:31:48.007Z,76.94
2022-10-01T10:34:19.232Z,76.76
2022-10-01T10:36:48.186Z,75.96
2022-10-01T10:39:29.313Z,76.96
2022-10-01T10:41:59.722Z,75.76
2022-10-01T10:44:32.069Z,76.01
2022-10-01T10:47:02.796Z,75.45
2022-10-01T10:49:33.423Z,75.39
2022-10-01T10:52:01.730Z,75.71
2022-10-01T10:54:41.169Z,75.32
2022-10-01T10:57:26.158Z,74.91
2022-10-01T11:00:16.218Z,73.99
2022-10-01T11:03:02.069Z,73.80
2022-10-01T11:05:35.731Z,73.61
2022-10-01T11:08:06.640Z,73.87
2022-10-01T11:10:53.423Z,73.61
2022-10-01T11:13:50.416Z,72.75
2022-10-01T11:16:40.900Z,72.08
2022-10-01T11:19:40.665Z,72.20
2022-10-01T11:22:28.410Z,72.29
2022-10-01T11:24:56.116Z,71.15
2022-10-01T11:27:27.576Z,71.76
2022-10-01T11:30:04.447Z,71.72
2022-10-01T11:32:55.547Z,70.73
2022-10-01T11:35:44.232Z,69.89
2022-10-01T11:38:18.708Z,70.88
2022-10-01T11:40:51.339Z,70.98
2022-10-01T11:43:43.750Z,71.18
2022-10-01T11:46:19.718Z,71.07
2022-10-01T11:48:54.010Z,70.17
2022-10-01T11:51:29.172Z,69.56
2022-10-01T11:54:03.374Z,69.77
2022-10-01T11:56:53.888Z,69.72
2022-10-01T11:59:24.468Z,70.01
2022-10-01T12:02:16.860Z,70.28
2022-10-01T12:05:07.402Z,69.96
2022-10-01T12:07:38.224Z,70.40
2022-10-01T12:10:21.950Z,70.29
2022-10-01T12:12:58.259Z,70.06
2022-10-01T12:15:29.993Z,70.14
2022-10-01T12:18:06.535Z,70.13
2022-10-01T12:20:40.869Z,69.68
2022-10-01T12:23:17.908Z,69.60
2022-10-01T12:26:11.499Z,69.84
2022-10-01T12:28:59.940Z,69.56
2022-10-01T12:32:00.253Z,69.47
2022-10-01T12:34:59.947Z,69.41
2022-10-01T12:37:44.633Z,69.22
2022-10-01T12:40:38.502Z,69.22
2022-10-01T12:43:39.065Z,69.19
2022-10-01T12:46:28.246Z,69.18
2022-10-01T12:49:07.860Z,68.70
2022-10-01T12:51:53.213Z,68.71
2022-10-01T12:54:41.770Z,68.75
2022-10-01T12:57:24.692Z,68.69
2022-10-01T13:00:27.418Z,68.56
2022-10-01T13:03:31.475Z,68.62
2022-10-01T13:06:19.425Z,68.44
2022-10-01T13:08:57.619Z,68.55
2022-10-01T13:11:47.190Z,68.55
2022-10-01T13:14:18.032Z,68.49
2022-10-01T13:16:59.353Z,68.63
2022-10-01T13:19:37.516Z,68.67
2022-10-01T13:22:21.097Z,68.32
2022-10-01T13:25:06.967Z,68.00
2022-10-01T13:28:13.547Z,67.96
2022-10-01T13:31:10.661Z,67.74
2022-10-01T13:33:38.428Z,67.64
2022-10-01T13:36:07.752Z,67.56
2022-10-01T13:38:38.043Z,67.34
2022-10-01T13:41:19.085Z,66.97
2022-10-01T13:43:58.210Z,67.64
2022-10-01T13:46:31.327Z,67.56
2022-10-01T13:49:07.100Z,67.61
2022-10-01T13:51:40.796Z,67.94
2022-10-01T13:54:23.789Z,67.91
2022-10-01T13:56:51.706Z,67.55
2022-10-01T13:59:32.714Z,67.42
2022-10-01T14:02:00.770Z,67.42
2022-10-01T14:04:40.301Z,67.45
2022-10-01T14:07:16.373Z,67.64
2022-10-01T14:09:58.396Z,67.05
2022-10-01T14:12:51.694Z,67.15
2022-10-01T14:15:41.684Z,67.00
2022-10-01T14:18:18.992Z,67.18
2022-10-01T14:21:02.925Z,67.06
2022-10-01T14:23:51.390Z,67.34
2022-10-01T14:26:28.640Z,67.38
2022-10-01T14:29:33.347Z,67.43
2022-10-01T14:32:16.993Z,67.47
2022-10-01T14:35:04.118Z,67.64
2022-10-01T14:37:38.260Z,67.80
2022-10-01T14:40:19.595Z,67.92
2022-10-01T14:43:14.159Z,67.84
2022-10-01T14:45:59.750Z,67.69
2022-10-01T14:48:33.041Z,67.93
2022-10-01T14:51:04.074Z,67.89
2022-10-01T14:53:42.865Z,68.04
2022-10-01T14:56:14.426Z,68.16
2022-10-01T14:58:46.410Z,68.13
2022-10-01T15:01:20.147Z,68.14
2022-10-01T15:03:49.803Z,68.36
2022-10-01T15:06:24.022Z,68.42
2022-10-01T15:08:56.113Z,68.45
2022-10-01T15:11:30.419Z,68.53
2022-10-01T15:14:08.362Z,68.39
2022-10-01T15:16:40.969Z,68.61
2022-10-01T15:19:15.894Z,68.73
2022-10-01T15:22:01.010Z,68.67
2022-10-01T15:24:46.594Z,68.91
2022-10-01T15:27:19.033Z,68.90
2022-10-01T15:29:55.990Z,68.97
2022-10-01T15:32:27.068Z,69.10
2022-10-01T15:34:58.016Z,69.15
2022-10-01T15:37:37.414Z,69.28
2022-10-01T15:40:19.876Z,69.37
2022-10-01T15:43:07.442Z,69.42
2022-10-01T15:45:35.883Z,69.51
2022-10-01T15:48:03.936Z,69.58
2022-10-01T15:50:38.238Z,69.64
2022-10-01T15:53:16.539Z,69.77
2022-10-01T15:55:54.189Z,69.94
2022-10-01T15:58:35.152Z,70.09
2022-10-01T16:01:06.725Z,70.29
2022-10-01T16:03:41.927Z,70.30
2022-10-01T16:06:27.232Z,70.51
2022-10-01T16:09:30.701Z,70.64
2022-10-01T16:11:59.791Z,70.78
2022-10-01T16:14:55.001Z,70.85
2022-10-01T16:17:31.345Z,70.86
2022-10-01T16:20:35.500Z,70.99
2022-10-01T16:23:38.728Z,71.11
2022-10-01T16:26:38.829Z,71.16
2022-10-01T16:29:12.704Z,71.22
2022-10-01T16:31:45.553Z,71.44
2022-10-01T16:34:18.437Z,71.44
2022-10-01T16:36:48.001Z,71.44
2022-10-01T16:39:16.072Z,71.51
2022-10-01T16:41:56.801Z,71.72
2022-10-01T16:44:42.126Z,71.86
2022-10-01T16:47:12.109Z,71.80
2022-10-01T16:49:43.830Z,72.07
2022-10-01T16:52:16.502Z,72.17
2022-10-01T16:54:45.029Z,72.33
2022-10-01T16:57:15.268Z,72.31
2022-10-01T16:59:44.579Z,72.38
2022-10-01T17:02:14.599Z,72.63
2022-10-01T17:04:42.404Z,72.74
2022-10-01T17:07:10.265Z,72.82
2022-10-01T17:09:38.554Z,72.99
2022-10-01T17:12:06.802Z,73.02
2022-10-01T17:14:34.684Z,73.19
2022-10-01T17:17:02.397Z,73.23
2022-10-01T17:19:30.196Z,73.59
2022-10-01T17:21:57.960Z,73.53
2022-10-01T17:24:26.792Z,73.55
2022-10-01T17:26:55.328Z,73.72
2022-10-01T17:29:23.106Z,73.94
2022-10-01T17:31:53.366Z,74.04
2022-10-01T17:34:22.067Z,74.17
2022-10-01T17:36:49.835Z,74.27
2022-10-01T17:39:18.036Z,74.27
2022-10-01T17:41:45.777Z,74.32
2022-10-01T17:44:13.528Z,74.66
2022-10-01T17:46:41.636Z,74.59
2022-10-01T17:49:10.386Z,74.80
2022-10-01T17:51:38.100Z,74.96
2022-10-01T17:54:06.393Z,74.97
2022-10-01T17:56:36.280Z,75.06
2022-10-01T17:59:04.341Z,75.13
2022-10-01T18:01:32.324Z,75.23
2022-10-01T18:04:00.866Z,75.34
2022-10-01T18:06:29.528Z,75.50
2022-10-01T18:08:57.301Z,75.73
2022-10-01T18:11:28.436Z,75.65
2022-10-01T18:13:56.695Z,75.78
2022-10-01T18:16:24.966Z,75.79
2022-10-01T18:21:48.646Z,76.12
2022-10-01T18:24:17.824Z,76.18
2022-10-01T18:26:45.953Z,76.30
2022-10-01T18:29:19.365Z,76.42
2022-10-01T18:31:51.692Z,76.45
2022-10-01T18:34:37.069Z,76.56
2022-10-01T18:37:47.395Z,76.74
2022-10-01T18:40:27.224Z,76.85
2022-10-01T18:43:10.947Z,77.01
2022-10-01T18:45:58.675Z,76.96
2022-10-01T18:48:51.107Z,77.26
2022-10-01T18:51:26.363Z,77.34
2022-10-01T18:54:10.712Z,77.35
2022-10-01T18:56:55.581Z,77.48
2022-10-01T18:59:49.850Z,77.69
2022-10-01T19:02:38.958Z,77.73
2022-10-01T19:05:37.816Z,77.99
2022-10-01T19:08:14.983Z,78.03
2022-10-01T19:10:56.599Z,78.21
2022-10-01T19:13:56.445Z,78.35
2022-10-01T19:16:35.759Z,79.02
2022-10-01T19:19:22.530Z,80.65
2022-10-01T19:22:01.479Z,80.44
2022-10-01T19:25:02.476Z,80.21
2022-10-01T19:27:40.965Z,80.34
2022-10-01T19:30:13.959Z,80.33
2022-10-01T19:33:07.065Z,80.41
2022-10-01T19:35:41.449Z,80.49
2022-10-01T19:38:29.703Z,80.49
2022-10-01T19:41:03.677Z,80.69
2022-10-01T19:43:55.216Z,80.75
2022-10-01T19:46:30.605Z,80.98
2022-10-01T19:49:45.038Z,81.16
2022-10-01T19:52:22.852Z,81.55
2022-10-01T19:54:59.167Z,81.74
2022-10-01T19:57:31.130Z,81.83
2022-10-01T20:00:12.834Z,81.74
2022-10-01T20:02:51.582Z,82.11
2022-10-01T20:05:28.439Z,82.00
2022-10-01T20:08:12.496Z,82.03
2022-10-01T20:10:55.201Z,82.29
2022-10-01T20:13:39.190Z,82.33
2022-10-01T20:16:22.857Z,82.33
2022-10-01T20:19:14.978Z,82.24
2022-10-01T20:22:08.234Z,82.89
2022-10-01T20:24:57.610Z,82.97
2022-10-01T20:28:05.447Z,82.89
2022-10-01T20:31:04.554Z,83.01
2022-10-01T20:33:54.526Z,83.00
2022-10-01T20:36:34.649Z,83.15
2022-10-01T20:39:22.815Z,83.16
2022-10-01T20:41:53.802Z,83.21
2022-10-01T20:44:33.131Z,83.45
2022-10-01T20:47:07.266Z,83.91
2022-10-01T20:49:48.783Z,83.77
2022-10-01T20:52:40.103Z,83.83
2022-10-01T20:55:21.934Z,84.09
2022-10-01T20:57:56.253Z,84.07
2022-10-01T21:00:27.789Z,84.05
2022-10-01T21:03:07.940Z,84.40
2022-10-01T21:05:41.776Z,84.15
2022-10-01T21:08:46.969Z,84.38
2022-10-01T21:11:30.676Z,84.58
2022-10-01T21:14:14.461Z,85.00
2022-10-01T21:17:06.177Z,84.82
2022-10-01T21:20:14.945Z,84.93
2022-10-01T21:23:04.891Z,85.28
2022-10-01T21:26:04.239Z,85.24
2022-10-01T21:29:05.227Z,85.61
2022-10-01T21:32:09.117Z,85.25
2022-10-01T21:34:47.198Z,85.73
2022-10-01T21:37:26.799Z,85.80
2022-10-01T21:40:13.236Z,86.17
2022-10-01T21:43:01.601Z,86.06
2022-10-01T21:46:01.468Z,86.25
2022-10-01T21:48:32.367Z,86.14
2022-10-01T21:51:25.501Z,86.27
2022-10-01T21:54:30.413Z,86.41
2022-10-01T21:57:43.255Z,86.58
2022-10-01T22:00:23.068Z,86.71
2022-10-01T22:03:20.115Z,86.69
2022-10-01T22:06:07.784Z,86.82
2022-10-01T22:08:57.721Z,87.19
2022-10-01T22:11:34.847Z,87.19
2022-10-01T22:14:19.309Z,87.07
2022-10-01T22:16:52.561Z,87.04
2022-10-01T22:19:35.749Z,87.35
2022-10-01T22:22:14.551Z,87.46
2022-10-01T22:24:48.994Z,87.35
2022-10-01T22:27:24.357Z,87.47
2022-10-01T22:29:57.681Z,87.45
2022-10-01T22:32:30.881Z,87.62
2022-10-01T22:35:20.204Z,87.80
2022-10-01T22:38:26.428Z,87.85
2022-10-01T22:41:22.671Z,87.87
2022-10-01T22:43:50.787Z,87.99
2022-10-01T22:46:31.662Z,88.17
2022-10-01T22:49:44.644Z,88.06
2022-10-01T22:52:25.130Z,88.60
2022-10-01T22:55:08.865Z,88.46
2022-10-01T22:58:00.274Z,88.85
2022-10-01T23:00:40.530Z,88.73
2022-10-01T23:03:29.893Z,89.03
2022-10-01T23:06:19.601Z,88.89
2022-10-01T23:09:08.055Z,89.00
2022-10-01T23:11:51.123Z,89.22
2022-10-01T23:14:51.076Z,89.37
2022-10-01T23:18:09.736Z,89.45
2022-10-01T23:20:57.323Z,89.61
2022-10-01T23:23:34.216Z,89.68
2022-10-01T23:26:17.971Z,89.71
2022-10-01T23:29:02.657Z,89.83
2022-10-01T23:31:44.190Z,89.74
2022-10-01T23:34:46.630Z,89.95
2022-10-01T23:37:36.703Z,89.92
2022-10-01T23:40:10.089Z,90.17
2022-10-01T23:42:49.345Z,90.23
2022-10-01T23:45:33.235Z,90.07
2022-10-01T23:48:06.797Z,90.79
2022-10-01T23:50:39.069Z,90.56
2022-10-01T23:53:17.828Z,90.91
2022-10-01T23:56:20.874Z,90.88
2022-10-01T23:58:56.357Z,90.91
